Terminal Aerodrome Forecast
Issued by NWS Sterling, VA

Current Version | Previous Version | Graphics & Text | Print | Product List | Glossary On
Versions: 1 2 3 4 5 6 7 8 9 10 11 12 13 14 15 16 17 18 19 20 21 22
513
FTUS41 KLWX 182332
TAFIAD
TAF
KIAD 182332Z 1900/2006 23005KT P6SM SCT120 OVC250
     FM191100 29005KT P6SM SCT025 OVC090
     FM191400 31009KT P6SM SCT030 BKN070
     FM191600 31011G22KT P6SM FEW035 SCT150
     FM192300 31008KT P6SM FEW140 FEW250=

USA.gov is the U.S. government's official web portal to all federal, state and local government web resources and services.